createdAt,value
2023-04-10T00:08:08.571Z,29.48
2023-04-10T00:18:10.559Z,18.67
2023-04-10T00:28:12.559Z,16.85
2023-04-10T00:38:14.579Z,16.08
2023-04-10T00:48:16.519Z,49.05
2023-04-10T00:58:18.689Z,15.55
2023-04-10T01:08:52.372Z,24.38
2023-04-10T01:19:01.229Z,24.75
2023-04-10T01:29:09.793Z,20.75
2023-04-10T01:39:12.702Z,21.20
2023-04-10T01:49:15.635Z,18.42
2023-04-10T01:59:19.880Z,33.95
2023-04-10T02:09:59.039Z,24.33
2023-04-10T02:20:04.807Z,31.23
2023-04-10T02:30:09.301Z,17.33
2023-04-10T02:40:11.501Z,26.80
2023-04-10T02:50:13.537Z,16.80
2023-04-10T03:00:16.667Z,20.80
2023-04-10T03:10:18.550Z,24.75
2023-04-10T03:20:20.579Z,21.55
2023-04-10T03:30:22.541Z,18.40
2023-04-10T03:40:26.453Z,14.80
2023-04-10T03:50:30.765Z,17.95
2023-04-10T04:00:34.015Z,13.70
2023-04-10T04:10:36.997Z,12.07
2023-04-10T04:20:38.853Z,14.13
2023-04-10T04:30:41.107Z,10.60
2023-04-10T04:40:43.308Z,11.88
2023-04-10T04:50:46.223Z,19.33
2023-04-10T05:00:48.113Z,21.15
2023-04-10T05:10:50.335Z,13.02
2023-04-10T05:20:52.274Z,22.50
2023-04-10T05:30:54.250Z,28.25
2023-04-10T05:40:57.152Z,17.05
2023-04-10T05:51:01.137Z,15.57
2023-04-10T06:01:03.038Z,15.82
2023-04-10T06:11:05.179Z,13.30
2023-04-10T06:21:07.626Z,14.63
2023-04-10T06:31:09.586Z,12.45
2023-04-10T06:41:17.229Z,11.40
2023-04-10T06:51:19.149Z,12.02
2023-04-10T07:01:30.038Z,12.07
2023-04-10T07:11:33.033Z,8.60
2023-04-10T07:21:34.992Z,9.10
2023-04-10T07:31:40.162Z,3.15
2023-04-10T07:41:42.266Z,5.57
2023-04-10T07:51:44.198Z,2.55
2023-04-10T08:01:48.212Z,2.03
2023-04-10T08:11:50.266Z,4.30
2023-04-10T08:21:52.320Z,1.85
2023-04-10T08:31:56.746Z,4.20
2023-04-10T08:41:58.812Z,2.22
2023-04-10T08:52:04.463Z,7.85
2023-04-10T09:02:06.817Z,2.45
2023-04-10T09:12:13.437Z,2.30
2023-04-10T09:22:17.513Z,6.05
2023-04-10T09:32:49.276Z,3.22
2023-04-10T09:43:00.407Z,6.78
2023-04-10T09:53:02.500Z,6.05
2023-04-10T10:03:08.434Z,4.45
2023-04-10T10:13:18.410Z,3.70
2023-04-10T10:23:22.732Z,4.18
2023-04-10T10:33:26.488Z,6.57
2023-04-10T10:43:58.221Z,1.90
2023-04-10T10:54:01.350Z,4.75
2023-04-10T11:05:01.946Z,1.42
2023-04-10T11:15:13.329Z,3.25
2023-04-10T11:25:15.413Z,2.28
2023-04-10T11:35:20.231Z,2.65
2023-04-10T11:45:27.097Z,4.57
2023-04-10T11:55:39.300Z,5.00
2023-04-10T12:05:51.632Z,2.30
2023-04-10T12:15:54.822Z,3.15
2023-04-10T12:26:10.941Z,4.43
2023-04-10T12:36:30.469Z,4.53
2023-04-10T12:46:32.609Z,2.70
2023-04-10T12:56:44.501Z,2.33
2023-04-10T13:06:53.227Z,2.55
2023-04-10T13:16:55.202Z,1.40
2023-04-10T13:26:59.173Z,4.50
2023-04-10T13:37:01.866Z,3.17
2023-04-10T13:47:03.998Z,3.65
2023-04-10T13:57:07.045Z,6.90
2023-04-10T14:07:12.531Z,3.15
2023-04-10T14:17:15.553Z,2.95
2023-04-10T14:27:19.560Z,3.60
2023-04-10T14:37:22.660Z,5.10
2023-04-10T14:47:26.721Z,4.88
2023-04-10T14:57:29.932Z,4.63
2023-04-10T15:07:32.000Z,6.47
2023-04-10T15:17:34.015Z,3.95
2023-04-10T15:27:36.258Z,5.75
2023-04-10T15:37:38.315Z,3.97
2023-04-10T15:47:40.489Z,3.78
2023-04-10T15:57:43.536Z,5.13
2023-04-10T16:07:46.558Z,4.07
2023-04-10T16:17:48.650Z,7.18
2023-04-10T16:27:50.968Z,6.22
2023-04-10T16:37:54.691Z,6.18
2023-04-10T16:47:57.814Z,5.97
2023-04-10T16:58:04.207Z,8.20
2023-04-10T17:08:06.721Z,14.57
2023-04-10T17:18:08.867Z,8.55
2023-04-10T17:28:11.095Z,8.70
2023-04-10T17:38:13.612Z,8.25
2023-04-10T17:48:19.161Z,5.25
2023-04-10T17:58:21.679Z,7.82
2023-04-10T18:08:23.744Z,6.82
2023-04-10T18:18:25.935Z,10.38
2023-04-10T18:28:38.116Z,8.68
2023-04-10T18:38:44.136Z,8.07
2023-04-10T18:48:58.428Z,9.43
2023-04-10T18:59:06.840Z,7.28
2023-04-10T19:09:18.107Z,7.68
2023-04-10T19:19:21.560Z,10.85
2023-04-10T19:29:24.757Z,12.55
2023-04-10T19:39:29.399Z,12.95
2023-04-10T19:49:35.176Z,16.73
2023-04-10T19:59:37.959Z,21.30
2023-04-10T20:09:46.021Z,31.67
2023-04-10T20:19:47.964Z,47.25
2023-04-10T20:29:50.781Z,49.58
2023-04-10T20:39:52.922Z,57.70
2023-04-10T20:49:55.131Z,57.97
2023-04-10T20:59:57.136Z,47.60
2023-04-10T21:09:59.316Z,52.75
2023-04-10T21:20:05.824Z,55.90
2023-04-10T21:30:09.261Z,57.13
2023-04-10T21:40:11.412Z,68.35
2023-04-10T21:50:14.411Z,70.53
2023-04-10T22:00:17.242Z,66.90
2023-04-10T22:10:20.271Z,74.18
2023-04-10T22:20:22.211Z,87.60
2023-04-10T22:30:26.808Z,88.88
2023-04-10T22:40:28.775Z,102.07
2023-04-10T22:50:33.288Z,103.60
2023-04-10T23:00:35.188Z,94.63
2023-04-10T23:10:37.161Z,66.00
2023-04-10T23:20:39.214Z,57.50
2023-04-10T23:30:43.081Z,52.22
2023-04-10T23:40:45.252Z,47.92
2023-04-10T23:50:47.113Z,54.10
